Time;durP1;ratioP1;P1;durP2;ratioP2;P2;SDS_P1;SDS_P2;PMS_P1;PMS_P2;Temp;Humidity;BMP_temperature;BMP_pressure;BME280_temperature;BME280_humidity;BME280_pressure;Samples;Min_cycle;Max_cycle;Signal;HPM_P1;HPM_P2
2023/04/18 00:00:25;;;;;;;8.00;5.85;;;7.50;64.70;;;;;;5049384;28;20052;-64
2023/04/18 00:02:53;;;;;;;9.43;6.88;;;7.40;65.90;;;;;;5045887;28;20041;-64
2023/04/18 00:05:20;;;;;;;13.35;6.57;;;7.40;66.80;;;;;;5049537;28;20059;-64
2023/04/18 00:07:46;;;;;;;12.38;7.18;;;7.30;68.50;;;;;;5048133;28;20048;-64
2023/04/18 00:10:12;;;;;;;15.77;7.57;;;7.30;69.40;;;;;;5049671;28;20052;-64
2023/04/18 00:12:38;;;;;;;13.15;7.60;;;7.30;70.50;;;;;;5048371;28;20171;-64
2023/04/18 00:15:06;;;;;;;10.95;7.35;;;7.30;71.60;;;;;;5048582;28;20163;-64
2023/04/18 00:17:31;;;;;;;14.23;7.00;;;7.20;72.10;;;;;;5049381;28;20174;-63
2023/04/18 00:19:57;;;;;;;8.52;6.57;;;7.20;72.20;;;;;;5047701;28;20135;-64
2023/04/18 00:22:24;;;;;;;9.18;6.57;;;7.20;77.00;;;;;;5031229;28;20057;-64
2023/04/18 00:24:50;;;;;;;10.00;6.50;;;7.30;75.90;;;;;;5047864;28;20048;-64
2023/04/18 00:27:20;;;;;;;13.35;6.57;;;7.20;75.50;;;;;;5048898;28;20025;-64
2023/04/18 00:29:47;;;;;;;8.98;6.43;;;7.20;75.90;;;;;;5013200;28;20175;-64
2023/04/18 00:32:13;;;;;;;11.55;6.30;;;7.10;75.10;;;;;;5048816;28;20041;-64
2023/04/18 00:34:39;;;;;;;11.95;6.82;;;7.20;74.80;;;;;;5048485;28;20044;-64
2023/04/18 00:37:06;;;;;;;10.52;6.45;;;7.10;76.00;;;;;;5029272;28;20057;-64
2023/04/18 00:39:33;;;;;;;10.63;6.40;;;7.10;76.50;;;;;;5048863;28;20095;-64
2023/04/18 00:42:01;;;;;;;14.13;6.85;;;7.10;78.30;;;;;;5047201;28;20502;-64
2023/04/18 00:44:27;;;;;;;10.40;5.93;;;7.10;79.40;;;;;;5048891;28;20477;-64
2023/04/18 00:46:53;;;;;;;9.52;6.47;;;7.10;79.90;;;;;;5047270;28;20170;-64
2023/04/18 00:49:18;;;;;;;9.90;6.60;;;7.00;83.40;;;;;;5048262;28;20075;-64
2023/04/18 00:51:45;;;;;;;10.02;6.18;;;7.00;82.20;;;;;;5047708;28;20122;-64
2023/04/18 00:54:12;;;;;;;11.95;7.20;;;7.00;85.20;;;;;;5047758;28;20037;-64
2023/04/18 00:56:38;;;;;;;9.57;6.72;;;7.00;83.80;;;;;;5048689;28;20040;-64
2023/04/18 00:59:09;;;;;;;14.27;7.10;;;7.00;84.60;;;;;;5028597;28;20126;-64
2023/04/18 01:01:35;;;;;;;9.05;6.90;;;6.90;88.40;;;;;;5048528;28;20060;-64
2023/04/18 01:04:01;;;;;;;11.63;6.78;;;6.90;89.50;;;;;;5028996;28;20139;-64
2023/04/18 01:06:29;;;;;;;11.45;6.90;;;6.90;90.30;;;;;;5048480;28;20515;-64
2023/04/18 01:08:56;;;;;;;15.00;7.30;;;6.90;90.90;;;;;;5046983;28;20084;-64
2023/04/18 01:11:22;;;;;;;6.90;5.55;;;6.90;91.90;;;;;;5047600;28;20052;-64
2023/04/18 01:14:04;;;;;;;13.80;7.30;;;6.80;92.60;;;;;;5048424;28;20037;-63
2023/04/18 01:16:33;;;;;;;9.00;6.50;;;6.80;92.30;;;;;;5034236;28;20148;-64
2023/04/18 01:19:00;;;;;;;14.32;6.53;;;6.90;92.00;;;;;;5048159;28;20043;-64
2023/04/18 01:21:29;;;;;;;11.20;7.30;;;6.90;92.60;;;;;;5014844;28;20064;-64
2023/04/18 01:24:03;;;;;;;10.48;6.57;;;6.90;92.90;;;;;;5048462;28;20049;-64
2023/04/18 01:26:29;;;;;;;9.05;6.63;;;6.90;92.90;;;;;;5029422;28;20053;-64
2023/04/18 01:28:54;;;;;;;11.23;5.93;;;6.90;92.20;;;;;;5046420;28;20102;-64
2023/04/18 01:31:20;;;;;;;6.90;6.18;;;7.00;92.40;;;;;;5048065;28;20048;-64
2023/04/18 01:33:46;;;;;;;8.48;6.20;;;7.00;92.50;;;;;;5046211;28;20103;-64
2023/04/18 01:36:12;;;;;;;11.73;6.47;;;7.00;92.40;;;;;;5048011;28;20479;-64
2023/04/18 01:38:37;;;;;;;6.53;5.45;;;7.00;92.10;;;;;;5028514;28;20079;-64
2023/04/18 01:41:03;;;;;;;6.80;5.75;;;7.10;92.90;;;;;;5047991;28;20075;-64
2023/04/18 01:43:29;;;;;;;9.88;6.38;;;7.10;92.60;;;;;;5047113;28;20386;-64
2023/04/18 01:45:55;;;;;;;9.55;5.45;;;7.10;93.30;;;;;;5047136;28;20041;-64
2023/04/18 01:48:20;;;;;;;9.50;6.93;;;7.10;93.10;;;;;;5029787;28;20090;-63
2023/04/18 01:50:46;;;;;;;6.25;5.10;;;7.20;91.90;;;;;;5045561;28;20051;-64
2023/04/18 01:53:12;;;;;;;6.30;5.05;;;7.10;90.60;;;;;;5047328;28;20053;-64
2023/04/18 01:55:37;;;;;;;6.90;5.38;;;7.20;89.20;;;;;;5045942;28;20041;-64
2023/04/18 01:58:03;;;;;;;9.90;5.30;;;7.30;87.90;;;;;;5047979;28;20048;-64
2023/04/18 02:00:29;;;;;;;5.07;4.53;;;7.30;81.40;;;;;;5045131;28;20106;-64
2023/04/18 02:02:57;;;;;;;6.22;4.80;;;7.40;84.40;;;;;;5029192;28;20522;-64
2023/04/18 02:05:25;;;;;;;7.35;4.82;;;7.40;78.30;;;;;;5046846;28;20505;-64
2023/04/18 02:07:51;;;;;;;9.93;4.43;;;7.50;76.30;;;;;;5046041;28;20475;-64
2023/04/18 02:10:18;;;;;;;6.05;4.78;;;7.50;75.50;;;;;;5029560;28;20139;-64
2023/04/18 02:12:43;;;;;;;13.98;5.20;;;7.50;77.30;;;;;;5045357;28;20082;-64
2023/04/18 02:15:10;;;;;;;7.95;4.90;;;7.50;80.00;;;;;;5047313;28;20151;-64
2023/04/18 02:17:36;;;;;;;9.85;4.57;;;7.60;80.50;;;;;;5045642;28;20053;-64
2023/04/18 02:20:03;;;;;;;8.60;4.75;;;7.50;75.70;;;;;;5047740;28;20045;-64
2023/04/18 02:22:28;;;;;;;8.50;4.25;;;7.50;73.40;;;;;;5046723;28;20049;-64
2023/04/18 02:24:54;;;;;;;8.55;4.65;;;7.60;74.00;;;;;;5046292;28;20037;-64
2023/04/18 02:27:20;;;;;;;11.77;4.53;;;7.60;76.30;;;;;;5047372;28;20044;-63
2023/04/18 02:29:45;;;;;;;6.35;4.20;;;7.60;75.10;;;;;;5011282;28;20155;-64
2023/04/18 02:32:11;;;;;;;7.05;4.80;;;7.60;75.00;;;;;;5048343;28;20499;-64
2023/04/18 02:34:37;;;;;;;8.77;4.82;;;7.60;76.10;;;;;;5045528;28;20115;-64
2023/04/18 02:37:03;;;;;;;6.03;4.22;;;7.60;76.90;;;;;;5029606;28;20041;-64
2023/04/18 02:39:29;;;;;;;10.57;5.10;;;7.60;75.70;;;;;;5027711;28;20057;-64
2023/04/18 02:41:54;;;;;;;7.28;4.38;;;7.60;74.30;;;;;;5012540;28;20555;-64
2023/04/18 02:44:20;;;;;;;7.65;4.55;;;7.60;72.80;;;;;;5046931;28;20115;-64
2023/04/18 02:46:46;;;;;;;8.90;4.63;;;7.50;77.60;;;;;;5044562;28;20036;-64
2023/04/18 02:49:12;;;;;;;5.20;4.45;;;7.50;79.60;;;;;;5047376;28;20052;-64
2023/04/18 02:51:37;;;;;;;6.18;4.70;;;7.50;82.40;;;;;;5027545;28;20165;-64
2023/04/18 02:54:03;;;;;;;8.82;4.43;;;7.40;81.10;;;;;;5047141;28;20475;-64
2023/04/18 02:56:29;;;;;;;7.32;4.40;;;7.40;85.40;;;;;;5045309;28;20515;-64
2023/04/18 02:58:55;;;;;;;5.00;3.85;;;7.40;84.00;;;;;;5047062;28;20067;-64
2023/04/18 03:01:20;;;;;;;6.10;4.75;;;7.40;85.50;;;;;;5046518;28;20089;-64
2023/04/18 03:03:46;;;;;;;8.52;4.63;;;7.30;87.60;;;;;;5046235;28;20511;-64
2023/04/18 03:06:12;;;;;;;5.57;4.97;;;7.30;88.00;;;;;;5046396;28;20060;-64
2023/04/18 03:08:37;;;;;;;10.20;4.72;;;7.30;88.70;;;;;;5045755;28;20071;-64
2023/04/18 03:11:03;;;;;;;7.63;4.45;;;7.30;89.20;;;;;;5047507;28;20598;-64
2023/04/18 03:13:29;;;;;;;7.95;5.00;;;7.20;88.80;;;;;;5049053;28;20044;-64
2023/04/18 03:15:55;;;;;;;8.35;5.00;;;7.20;89.80;;;;;;5050121;28;20056;-64
2023/04/18 03:18:20;;;;;;;7.35;4.93;;;7.20;90.00;;;;;;5049313;28;20044;-64
2023/04/18 03:20:46;;;;;;;5.68;4.45;;;7.30;90.70;;;;;;5050368;28;20037;-64
2023/04/18 03:23:12;;;;;;;8.30;4.60;;;7.30;90.40;;;;;;5049728;28;20045;-64
2023/04/18 03:25:37;;;;;;;5.20;4.38;;;7.30;91.90;;;;;;5049670;28;20048;-64
2023/04/18 03:28:03;;;;;;;5.60;4.55;;;7.30;92.20;;;;;;5050028;28;20090;-64
2023/04/18 03:30:30;;;;;;;7.22;4.90;;;7.20;91.90;;;;;;5048928;28;20433;-64
2023/04/18 03:32:55;;;;;;;6.93;4.43;;;7.20;92.50;;;;;;5050077;28;20049;-64
2023/04/18 03:35:21;;;;;;;7.30;4.45;;;7.30;92.10;;;;;;5048889;28;20064;-64
2023/04/18 03:37:47;;;;;;;9.50;4.90;;;7.20;92.10;;;;;;5049782;28;20447;-64
2023/04/18 03:40:13;;;;;;;4.88;4.18;;;7.30;92.10;;;;;;5049218;28;20044;-64
2023/04/18 03:42:39;;;;;;;6.47;4.18;;;7.30;92.40;;;;;;5050046;28;20464;-64
2023/04/18 03:45:05;;;;;;;7.95;4.55;;;7.30;91.20;;;;;;5031316;28;20132;-64
2023/04/18 03:47:30;;;;;;;6.43;4.57;;;7.30;91.70;;;;;;5048792;28;20045;-64
2023/04/18 03:49:56;;;;;;;6.40;4.50;;;7.30;91.70;;;;;;5049568;28;20128;-64
2023/04/18 03:52:22;;;;;;;13.25;4.72;;;7.30;92.80;;;;;;5048765;28;20047;-64
2023/04/18 03:54:48;;;;;;;5.97;4.47;;;7.30;92.10;;;;;;5050123;28;20240;-64
2023/04/18 03:57:14;;;;;;;6.60;4.38;;;7.20;92.90;;;;;;5048297;28;20044;-64
2023/04/18 03:59:40;;;;;;;6.68;4.45;;;7.30;93.50;;;;;;5015230;28;20048;-64
2023/04/18 04:02:06;;;;;;;6.32;4.40;;;7.30;92.50;;;;;;5048610;28;20045;-64
2023/04/18 04:04:31;;;;;;;6.70;5.20;;;7.30;93.10;;;;;;5030943;28;20045;-64
2023/04/18 04:06:57;;;;;;;8.10;5.10;;;7.30;92.40;;;;;;5049458;28;20048;-64
2023/04/18 04:09:23;;;;;;;8.63;4.82;;;7.30;92.50;;;;;;5047871;28;20395;-64
2023/04/18 04:11:49;;;;;;;6.90;4.55;;;7.30;93.10;;;;;;5049668;28;20052;-64
2023/04/18 04:14:15;;;;;;;7.80;4.88;;;7.40;93.60;;;;;;5047692;28;20056;-64
2023/04/18 04:16:41;;;;;;;11.27;5.57;;;7.30;93.00;;;;;;5015131;28;20035;-64
2023/04/18 04:19:06;;;;;;;7.38;5.05;;;7.30;92.90;;;;;;5047248;28;20593;-64
2023/04/18 04:21:32;;;;;;;12.70;5.85;;;7.30;93.10;;;;;;5049405;28;20048;-64
2023/04/18 04:23:58;;;;;;;8.93;5.30;;;7.30;93.40;;;;;;5034878;28;20162;-64
2023/04/18 04:26:25;;;;;;;6.93;5.15;;;7.30;91.40;;;;;;5035383;28;20064;-64
2023/04/18 04:28:52;;;;;;;10.35;5.80;;;7.40;91.80;;;;;;5038645;28;20046;-64
2023/04/18 04:31:20;;;;;;;13.82;5.97;;;7.40;92.20;;;;;;5044712;28;20037;-64
2023/04/18 04:33:46;;;;;;;9.68;5.53;;;7.40;92.50;;;;;;5049518;28;20290;-64
2023/04/18 04:36:13;;;;;;;10.57;5.05;;;7.40;91.20;;;;;;5044415;28;20442;-64
2023/04/18 04:38:40;;;;;;;6.18;5.00;;;7.40;91.10;;;;;;5041368;28;20048;-64
2023/04/18 04:41:06;;;;;;;7.55;6.00;;;7.40;91.80;;;;;;5045648;28;20495;-64
2023/04/18 04:43:35;;;;;;;10.27;6.57;;;7.40;91.40;;;;;;5029511;28;20080;-64
2023/04/18 04:46:06;;;;;;;7.95;5.72;;;7.40;90.50;;;;;;5030863;28;20076;-64
2023/04/18 04:48:32;;;;;;;8.98;5.57;;;7.40;92.00;;;;;;5028359;28;20388;-64
2023/04/18 04:50:59;;;;;;;9.32;6.70;;;7.40;92.20;;;;;;5048344;28;20115;-64
2023/04/18 04:53:26;;;;;;;9.13;6.43;;;7.40;92.10;;;;;;5047072;28;20112;-64
2023/04/18 04:55:52;;;;;;;9.30;6.03;;;7.40;91.70;;;;;;5049297;28;20025;-64
2023/04/18 04:58:18;;;;;;;11.38;6.57;;;7.50;91.10;;;;;;5047444;28;20045;-64
2023/04/18 05:00:45;;;;;;;8.68;6.97;;;7.50;90.00;;;;;;5047812;28;20128;-64
2023/04/18 05:03:10;;;;;;;8.52;6.57;;;7.50;91.20;;;;;;5045005;28;20495;-64
2023/04/18 05:05:36;;;;;;;7.05;5.45;;;7.60;91.60;;;;;;5012207;28;20061;-64
2023/04/18 05:08:02;;;;;;;17.65;6.63;;;7.50;91.20;;;;;;5048213;28;20125;-64
2023/04/18 05:10:29;;;;;;;10.65;6.40;;;7.50;91.00;;;;;;5046912;28;20132;-64
2023/04/18 05:12:55;;;;;;;7.50;5.95;;;7.50;91.30;;;;;;5029975;28;20091;-64
2023/04/18 05:15:22;;;;;;;8.52;5.85;;;7.50;90.30;;;;;;5029061;28;20076;-64
2023/04/18 05:17:48;;;;;;;11.07;6.38;;;7.40;87.40;;;;;;5047897;28;20053;-64
2023/04/18 05:20:13;;;;;;;8.85;6.07;;;7.40;89.10;;;;;;5047746;28;20075;-64
2023/04/18 05:22:39;;;;;;;7.38;6.15;;;7.40;88.90;;;;;;5047000;28;20103;-64
2023/04/18 05:25:05;;;;;;;9.77;6.82;;;7.40;86.90;;;;;;5047444;28;20041;-64
2023/04/18 05:27:31;;;;;;;9.93;6.13;;;7.40;84.90;;;;;;5046734;28;20095;-64
2023/04/18 05:29:57;;;;;;;15.00;6.20;;;7.50;82.80;;;;;;5030185;28;20445;-64
2023/04/18 05:32:22;;;;;;;7.68;6.22;;;7.50;78.90;;;;;;5011981;28;20052;-64
2023/04/18 05:34:48;;;;;;;8.20;6.10;;;7.60;72.90;;;;;;5029677;28;20041;-64
2023/04/18 05:37:14;;;;;;;10.82;6.55;;;7.60;71.10;;;;;;5028689;28;20037;-64
2023/04/18 05:39:41;;;;;;;11.73;6.10;;;7.60;69.80;;;;;;5047139;28;20178;-64
2023/04/18 05:42:06;;;;;;;8.32;6.28;;;7.70;65.80;;;;;;5047167;28;20045;-64
2023/04/18 05:44:32;;;;;;;9.65;6.32;;;7.70;64.90;;;;;;5028248;28;20049;-64
2023/04/18 05:46:58;;;;;;;15.93;6.00;;;7.80;63.10;;;;;;5029906;28;20045;-64
2023/04/18 05:49:24;;;;;;;8.40;5.20;;;7.80;63.10;;;;;;5045838;28;20044;-64
2023/04/18 05:51:49;;;;;;;5.95;4.90;;;7.80;59.30;;;;;;5029522;28;20036;-64
2023/04/18 05:54:16;;;;;;;10.98;5.57;;;7.70;48.30;;;;;;5045915;28;20055;-64
2023/04/18 05:56:41;;;;;;;9.50;6.25;;;7.70;53.90;;;;;;5047068;28;20861;-64
2023/04/18 05:59:07;;;;;;;12.50;6.03;;;7.70;51.60;;;;;;5046767;28;20107;-64
2023/04/18 06:01:33;;;;;;;8.30;5.32;;;7.80;49.30;;;;;;5046160;28;20061;-64
2023/04/18 06:03:59;;;;;;;7.40;5.85;;;7.90;52.40;;;;;;4996779;28;20053;-64
2023/04/18 06:06:25;;;;;;;7.75;5.65;;;8.10;52.30;;;;;;5027431;28;20480;-64
2023/04/18 06:08:51;;;;;;;10.52;5.57;;;8.30;46.40;;;;;;5047531;28;20045;-64
2023/04/18 06:11:19;;;;;;;13.48;5.90;;;8.30;43.10;;;;;;5010414;28;20032;-64
2023/04/18 06:13:44;;;;;;;8.10;5.35;;;8.20;44.40;;;;;;5042294;28;20049;-64
2023/04/18 06:16:10;;;;;;;11.52;5.30;;;8.30;46.80;;;;;;5024725;28;20040;-63
2023/04/18 06:18:36;;;;;;;13.20;5.40;;;8.20;37.20;;;;;;5028459;28;20102;-64
2023/04/18 06:21:02;;;;;;;8.85;5.70;;;8.30;39.20;;;;;;5047466;28;20056;-64
2023/04/18 06:23:27;;;;;;;8.18;5.95;;;8.50;40.00;;;;;;5040222;28;20040;-64
2023/04/18 06:25:53;;;;;;;9.23;5.38;;;8.80;37.60;;;;;;5047388;28;20475;-64
2023/04/18 06:28:19;;;;;;;11.95;5.65;;;9.10;41.60;;;;;;5045939;28;20037;-64
2023/04/18 06:30:45;;;;;;;11.18;6.10;;;9.30;35.50;;;;;;5029527;28;20053;-64
2023/04/18 06:33:10;;;;;;;7.50;5.55;;;9.30;35.10;;;;;;5024962;28;20554;-65
2023/04/18 06:35:36;;;;;;;7.50;5.72;;;9.20;32.60;;;;;;5029081;28;20052;-64
2023/04/18 06:38:02;;;;;;;10.60;5.80;;;8.90;33.40;;;;;;5046526;28;20048;-64
2023/04/18 06:40:28;;;;;;;8.85;5.90;;;8.80;38.00;;;;;;5046130;28;20960;-64
2023/04/18 06:42:54;;;;;;;8.55;6.00;;;8.70;39.00;;;;;;5029463;28;20045;-64
2023/04/18 06:45:20;;;;;;;8.10;5.88;;;8.60;43.00;;;;;;5025233;28;20841;-64
2023/04/18 06:47:46;;;;;;;14.82;6.43;;;8.70;42.70;;;;;;5049306;28;20044;-64
2023/04/18 06:50:13;;;;;;;13.73;6.68;;;8.60;43.20;;;;;;5048742;28;20501;-64
2023/04/18 06:52:43;;;;;;;9.80;5.95;;;8.60;42.20;;;;;;5050694;28;20052;-64
2023/04/18 06:55:12;;;;;;;11.52;6.55;;;8.70;43.10;;;;;;5013838;28;20053;-63
2023/04/18 06:57:40;;;;;;;20.65;7.40;;;8.70;42.70;;;;;;5015702;28;20191;-64
2023/04/18 07:00:07;;;;;;;11.50;6.25;;;8.70;43.10;;;;;;5032900;28;20064;-64
2023/04/18 07:02:36;;;;;;;9.75;6.38;;;8.80;41.00;;;;;;5030749;28;20037;-64
2023/04/18 07:05:01;;;;;;;10.40;6.60;;;8.90;37.80;;;;;;5032496;28;20059;-64
2023/04/18 07:07:27;;;;;;;12.40;6.60;;;9.10;42.80;;;;;;5047726;28;20048;-64
2023/04/18 07:09:53;;;;;;;10.32;7.10;;;9.20;35.40;;;;;;5032842;28;20052;-64
2023/04/18 07:12:20;;;;;;;14.98;6.80;;;9.30;38.30;;;;;;5044427;28;20033;-64
2023/04/18 07:14:45;;;;;;;9.32;6.28;;;9.50;38.80;;;;;;5043039;28;20049;-64
2023/04/18 07:17:11;;;;;;;8.50;5.53;;;9.60;36.30;;;;;;5031353;28;20607;-64
2023/04/18 07:19:37;;;;;;;14.43;6.78;;;9.60;33.60;;;;;;5043730;28;20037;-64
2023/04/18 07:22:03;;;;;;;8.52;6.18;;;9.80;33.00;;;;;;5040403;28;20064;-64
2023/04/18 07:24:29;;;;;;;14.23;7.03;;;9.90;35.20;;;;;;5029666;28;20040;-63
2023/04/18 07:26:55;;;;;;;10.27;6.50;;;10.00;35.10;;;;;;5042720;28;20197;-64
2023/04/18 07:29:21;;;;;;;16.63;6.68;;;10.10;34.50;;;;;;5038525;28;20057;-64
2023/04/18 07:31:47;;;;;;;11.02;6.53;;;10.30;35.10;;;;;;5045465;28;20037;-64
2023/04/18 07:34:13;;;;;;;13.95;6.93;;;10.40;33.50;;;;;;5049280;28;20072;-64
2023/04/18 07:36:40;;;;;;;16.73;6.25;;;10.50;35.70;;;;;;5048807;28;20142;-64
2023/04/18 07:39:06;;;;;;;14.57;6.13;;;10.60;27.90;;;;;;5049630;28;20045;-64
2023/04/18 07:41:33;;;;;;;9.60;5.57;;;10.70;30.10;;;;;;5043941;28;20491;-64
2023/04/18 07:44:00;;;;;;;12.80;6.22;;;10.80;28.20;;;;;;5037984;28;20099;-64
2023/04/18 07:46:27;;;;;;;17.77;5.50;;;10.80;22.30;;;;;;5027060;28;20547;-64
2023/04/18 07:48:52;;;;;;;7.95;5.88;;;10.80;23.60;;;;;;5044626;28;20068;-64
2023/04/18 07:51:18;;;;;;;12.45;6.07;;;10.90;21.50;;;;;;5029474;28;20080;-64
2023/04/18 07:53:44;;;;;;;12.25;6.30;;;11.00;19.80;;;;;;5049192;28;20037;-64
2023/04/18 07:56:13;;;;;;;12.35;5.22;;;11.10;19.40;;;;;;5048993;28;20530;-64
2023/04/18 07:58:39;;;;;;;28.58;5.75;;;11.10;17.10;;;;;;5026257;28;20033;-64
2023/04/18 08:01:06;;;;;;;11.10;5.68;;;11.20;20.80;;;;;;5043035;28;20064;-64
2023/04/18 08:03:35;;;;;;;13.20;5.85;;;11.40;20.20;;;;;;5043126;28;20076;-64
2023/04/18 08:06:01;;;;;;;17.50;8.93;;;11.50;18.10;;;;;;5030331;28;20053;-63
2023/04/18 08:08:27;;;;;;;9.82;5.40;;;11.50;8.70;;;;;;5045237;28;20110;-64
2023/04/18 08:10:53;;;;;;;13.63;5.78;;;11.50;11.70;;;;;;5048376;28;20044;-64
2023/04/18 08:13:19;;;;;;;14.68;5.38;;;11.50;14.20;;;;;;5046940;28;20056;-63
2023/04/18 08:15:46;;;;;;;8.60;5.40;;;11.60;16.80;;;;;;5011592;28;20044;-64
2023/04/18 08:18:11;;;;;;;8.93;5.13;;;11.60;12.80;;;;;;5029025;28;20087;-63
2023/04/18 08:20:37;;;;;;;8.95;5.53;;;11.60;12.80;;;;;;5011395;28;20425;-64
2023/04/18 08:23:03;;;;;;;8.05;5.50;;;11.70;14.00;;;;;;5044328;28;20135;-63
2023/04/18 08:25:30;;;;;;;12.80;6.18;;;11.70;14.90;;;;;;5028139;28;20041;-64
2023/04/18 08:27:56;;;;;;;9.13;5.50;;;11.80;10.70;;;;;;5042894;28;20084;-63
2023/04/18 08:30:22;;;;;;;10.52;5.75;;;11.90;12.10;;;;;;4997432;28;20045;-64
2023/04/18 08:32:48;;;;;;;9.63;5.28;;;11.90;9.50;;;;;;5048223;28;20040;-64
2023/04/18 08:35:14;;;;;;;12.48;5.10;;;12.00;12.70;;;;;;5049042;28;20132;-64
2023/04/18 08:37:40;;;;;;;9.35;5.20;;;12.00;14.80;;;;;;5046876;28;20052;-64
2023/04/18 08:40:07;;;;;;;8.00;4.85;;;12.10;13.10;;;;;;5027791;28;20049;-64
2023/04/18 08:42:34;;;;;;;8.20;5.22;;;12.20;11.70;;;;;;5026301;28;20040;-64
2023/04/18 08:45:00;;;;;;;7.80;5.15;;;12.20;15.40;;;;;;5048687;28;20089;-64
2023/04/18 08:47:28;;;;;;;12.05;5.63;;;12.30;14.80;;;;;;5040744;28;20589;-64
2023/04/18 08:49:55;;;;;;;12.57;4.70;;;12.30;14.20;;;;;;5032015;28;20487;-64
2023/04/18 08:52:22;;;;;;;12.43;4.80;;;12.40;16.10;;;;;;5041568;28;20037;-64
2023/04/18 08:54:49;;;;;;;7.70;4.82;;;12.50;16.20;;;;;;5042495;28;20114;-63
2023/04/18 08:57:22;;;;;;;7.22;4.57;;;12.50;14.60;;;;;;5030237;28;20045;-64
2023/04/18 08:59:49;;;;;;;6.28;4.40;;;12.70;16.40;;;;;;5012426;28;20052;-64
2023/04/18 09:02:15;;;;;;;11.52;5.75;;;12.50;12.70;;;;;;5012084;28;20202;-64
2023/04/18 09:04:47;;;;;;;7.80;4.80;;;12.60;12.50;;;;;;5041248;28;20076;-64
2023/04/18 09:07:15;;;;;;;9.90;4.65;;;12.70;15.70;;;;;;5034666;28;20495;-64
2023/04/18 09:09:45;;;;;;;6.38;4.50;;;12.60;16.00;;;;;;5027267;28;20048;-63
2023/04/18 09:12:13;;;;;;;8.47;5.17;;;12.70;16.00;;;;;;5046037;28;20044;-64
2023/04/18 09:14:48;;;;;;;8.55;4.50;;;12.70;15.70;;;;;;5045072;28;20295;-64
2023/04/18 09:17:30;;;;;;;15.40;5.68;;;12.80;15.20;;;;;;5046490;28;20045;-63
2023/04/18 09:19:57;;;;;;;9.50;4.50;;;12.80;15.50;;;;;;5035749;28;20060;-63
2023/04/18 09:22:23;;;;;;;5.05;3.95;;;12.70;14.70;;;;;;5026019;28;20059;-62
2023/04/18 09:24:56;;;;;;;6.47;3.75;;;12.70;13.50;;;;;;5046139;28;20176;-63
2023/04/18 09:27:22;;;;;;;4.82;4.32;;;12.90;17.30;;;;;;5047896;28;20044;-63
2023/04/18 09:29:53;;;;;;;4.38;3.70;;;12.80;16.10;;;;;;5024618;28;20135;-63
2023/04/18 09:32:29;;;;;;;5.22;4.38;;;12.90;16.80;;;;;;5044899;28;20045;-63
2023/04/18 09:35:00;;;;;;;5.03;3.67;;;13.00;17.50;;;;;;5011835;28;20049;-63
2023/04/18 09:37:27;;;;;;;6.90;4.50;;;13.10;18.10;;;;;;5041469;28;20051;-62
2023/04/18 09:39:54;;;;;;;8.82;3.90;;;13.20;16.40;;;;;;5010835;28;20056;-62
2023/04/18 09:42:21;;;;;;;6.70;3.95;;;13.20;17.20;;;;;;5028387;28;20517;-63
2023/04/18 09:45:07;;;;;;;7.38;3.58;;;13.20;16.10;;;;;;5011894;28;20041;-63
2023/04/18 09:47:35;;;;;;;9.38;4.25;;;13.20;19.80;;;;;;5024074;28;20073;-62
2023/04/18 09:50:08;;;;;;;7.20;3.85;;;13.20;15.10;;;;;;5026323;28;20067;-62
2023/04/18 09:52:36;;;;;;;4.03;3.63;;;13.10;15.90;;;;;;5028412;28;20049;-63
2023/04/18 09:55:05;;;;;;;4.57;3.95;;;13.10;19.60;;;;;;5019800;28;20051;-64
2023/04/18 09:57:32;;;;;;;4.00;3.60;;;13.20;17.50;;;;;;5047475;28;20036;-63
2023/04/18 10:00:22;;;;;;;4.28;3.42;;;13.30;19.10;;;;;;5046065;28;20048;-64
2023/04/18 10:02:52;;;;;;;7.15;3.80;;;13.40;17.80;;;;;;5044478;28;20415;-64
2023/04/18 10:05:19;;;;;;;3.67;3.38;;;13.40;22.50;;;;;;5008535;28;20084;-64
2023/04/18 10:07:47;;;;;;;5.47;3.97;;;13.50;16.90;;;;;;5011043;28;20494;-64
2023/04/18 10:10:14;;;;;;;3.95;3.55;;;13.50;16.10;;;;;;5043119;28;20045;-63
2023/04/18 10:12:40;;;;;;;7.57;3.92;;;13.50;14.90;;;;;;5028200;28;20064;-65
2023/04/18 10:15:07;;;;;;;4.55;3.65;;;13.60;17.50;;;;;;5047660;28;20051;-64
2023/04/18 10:17:42;;;;;;;6.55;3.55;;;13.60;18.70;;;;;;5035134;28;20052;-64
2023/04/18 10:20:14;;;;;;;4.65;3.65;;;13.70;21.50;;;;;;5024650;28;20755;-64
2023/04/18 10:22:39;;;;;;;4.18;3.38;;;13.70;16.90;;;;;;5048175;28;20469;-64
2023/04/18 10:25:06;;;;;;;8.65;3.72;;;13.70;18.40;;;;;;5032117;28;20129;-63
2023/04/18 10:27:47;;;;;;;4.85;3.83;;;13.80;15.10;;;;;;5050304;28;20068;-64
2023/04/18 10:30:17;;;;;;;6.60;3.53;;;13.70;18.10;;;;;;5028049;28;20060;-64
2023/04/18 10:32:45;;;;;;;3.83;3.33;;;13.60;14.60;;;;;;5045446;28;20052;-64
2023/04/18 10:35:11;;;;;;;4.05;3.10;;;13.60;19.10;;;;;;5049130;28;20064;-64
2023/04/18 10:37:50;;;;;;;4.45;3.30;;;13.60;17.40;;;;;;5044532;28;20552;-64
2023/04/18 10:40:16;;;;;;;8.63;3.80;;;13.70;19.00;;;;;;5027828;28;20080;-64
2023/04/18 10:42:51;;;;;;;4.63;3.35;;;13.70;17.60;;;;;;5015783;28;20086;-64
2023/04/18 10:45:21;;;;;;;4.63;3.13;;;13.60;17.30;;;;;;5046732;28;20052;-64
2023/04/18 10:47:47;;;;;;;3.17;2.75;;;13.60;18.40;;;;;;5014021;28;20492;-64
2023/04/18 10:50:14;;;;;;;5.82;3.28;;;13.80;18.10;;;;;;5046408;28;20207;-64
2023/04/18 10:52:40;;;;;;;3.15;2.60;;;13.90;18.60;;;;;;5022694;28;20045;-64
2023/04/18 10:55:25;;;;;;;7.15;2.70;;;14.00;14.40;;;;;;5045981;28;20442;-63
2023/04/18 10:57:54;;;;;;;4.97;2.75;;;14.00;16.90;;;;;;5040414;28;20264;-64
2023/04/18 11:00:21;;;;;;;;;;;14.10;16.80;;;;;;5029810;28;20150;-64
2023/04/18 11:02:49;;;;;;;24.05;7.88;;;14.20;19.50;;;;;;5045196;28;19971;-64
2023/04/18 11:05:19;;;;;;;10.75;3.97;;;14.10;16.20;;;;;;5043926;28;20064;-64
2023/04/18 11:07:47;;;;;;;45.05;13.85;;;14.00;16.90;;;;;;5045204;28;20435;-65
2023/04/18 11:10:19;;;;;;;13.57;4.65;;;13.90;15.10;;;;;;5049507;28;20060;-64
2023/04/18 11:12:46;;;;;;;13.20;5.05;;;13.90;18.10;;;;;;5049487;28;20498;-64
2023/04/18 11:15:16;;;;;;;36.60;10.50;;;14.10;16.40;;;;;;5050884;28;20402;-64
2023/04/18 11:17:42;;;;;;;19.45;6.25;;;14.20;19.50;;;;;;5048126;28;20048;-64
2023/04/18 11:20:11;;;;;;;10.07;3.15;;;14.30;16.40;;;;;;5050990;28;20033;-63
2023/04/18 11:22:49;;;;;;;4.72;2.03;;;14.40;12.20;;;;;;5037294;28;20500;-63
2023/04/18 11:25:16;;;;;;;2.50;1.50;;;14.40;12.90;;;;;;5042904;28;20041;-63
2023/04/18 11:27:45;;;;;;;2.13;1.75;;;14.20;14.40;;;;;;5044669;28;20045;-63
2023/04/18 11:30:12;;;;;;;2.60;1.48;;;14.20;12.20;;;;;;5013560;28;20045;-63
2023/04/18 11:32:38;;;;;;;2.60;1.75;;;14.20;14.90;;;;;;5047275;28;20439;-63
2023/04/18 11:35:07;;;;;;;5.55;2.00;;;14.20;17.70;;;;;;5029885;28;20049;-63
2023/04/18 11:37:33;;;;;;;3.85;2.05;;;14.30;14.70;;;;;;5048133;28;20045;-63
2023/04/18 11:39:59;;;;;;;4.95;2.25;;;14.10;13.00;;;;;;5044407;28;20057;-64
2023/04/18 11:42:27;;;;;;;2.58;1.67;;;13.90;17.60;;;;;;5050290;28;20041;-63
2023/04/18 11:44:53;;;;;;;4.40;1.95;;;13.80;17.40;;;;;;5023177;28;20137;-63
2023/04/18 11:47:27;;;;;;;2.55;2.40;;;13.80;13.90;;;;;;5049066;28;20522;-63
2023/04/18 11:49:58;;;;;;;5.80;2.17;;;13.90;15.10;;;;;;5028254;28;20510;-63
2023/04/18 11:52:27;;;;;;;3.15;2.40;;;14.00;18.10;;;;;;5033962;28;20048;-64
2023/04/18 11:54:53;;;;;;;2.85;2.15;;;14.10;13.60;;;;;;5042545;28;20041;-63
2023/04/18 11:57:27;;;;;;;3.65;1.88;;;13.90;14.90;;;;;;5047555;28;20048;-63
2023/04/18 11:59:56;;;;;;;1.77;1.42;;;14.00;17.40;;;;;;5015944;28;20133;-64
2023/04/18 12:02:25;;;;;;;4.00;1.75;;;14.10;15.40;;;;;;5048472;28;20071;-63
2023/04/18 12:04:58;;;;;;;4.93;1.90;;;14.10;12.80;;;;;;5048746;28;20037;-63
2023/04/18 12:07:31;;;;;;;1.90;1.80;;;14.10;18.70;;;;;;5042579;28;20294;-64
2023/04/18 12:09:57;;;;;;;1.83;1.67;;;14.30;14.30;;;;;;5047791;28;20049;-63
2023/04/18 12:12:23;;;;;;;2.22;1.73;;;14.30;12.80;;;;;;5032156;28;20052;-63
2023/04/18 12:15:07;;;;;;;1.88;1.67;;;14.60;16.80;;;;;;5047727;28;20411;-64
2023/04/18 12:17:35;;;;;;;2.35;1.80;;;14.50;15.70;;;;;;5049170;28;20146;-64
2023/04/18 12:20:03;;;;;;;3.47;2.40;;;14.70;13.10;;;;;;5031311;28;20053;-63
2023/04/18 12:22:39;;;;;;;2.80;2.03;;;14.70;15.40;;;;;;5047993;28;20068;-64
2023/04/18 12:25:21;;;;;;;3.35;2.33;;;14.70;15.70;;;;;;5031118;28;20263;-63
2023/04/18 12:27:59;;;;;;;3.67;2.50;;;14.40;16.40;;;;;;5042743;28;20053;-63
2023/04/18 12:30:26;;;;;;;2.90;2.45;;;14.50;14.70;;;;;;5049038;28;20045;-63
2023/04/18 12:32:57;;;;;;;3.38;1.90;;;14.60;14.40;;;;;;5030511;28;20091;-64
2023/04/18 12:35:24;;;;;;;2.33;1.70;;;14.80;14.10;;;;;;5042444;28;20037;-64
2023/04/18 12:37:52;;;;;;;2.40;1.90;;;14.70;14.20;;;;;;5028889;28;20054;-63
2023/04/18 12:40:19;;;;;;;2.03;1.80;;;14.90;14.00;;;;;;5042923;28;20118;-63
2023/04/18 12:42:46;;;;;;;6.50;2.53;;;14.90;14.20;;;;;;5048717;28;20036;-64
2023/04/18 12:45:13;;;;;;;2.40;2.20;;;14.90;14.60;;;;;;5035481;28;20488;-63
2023/04/18 12:47:40;;;;;;;2.40;2.20;;;14.90;10.70;;;;;;5043242;28;20541;-63
2023/04/18 12:50:08;;;;;;;2.20;2.03;;;14.90;9.60;;;;;;5044332;28;20073;-63